Time;durP1;ratioP1;P1;durP2;ratioP2;P2;SDS_P1;SDS_P2;PMS_P1;PMS_P2;Temp;Humidity;BMP_temperature;BMP_pressure;BME280_temperature;BME280_humidity;BME280_pressure;Samples;Min_cycle;Max_cycle;Signal;HPM_P1;HPM_P2
2021/06/17 00:01:06;;;;;;;4.70;4.30;;;21.60;96.30;;;;;;5074136;28;20479;-50
2021/06/17 00:03:33;;;;;;;5.20;4.60;;;21.50;96.30;;;;;;5073899;28;20477;-51
2021/06/17 00:06:00;;;;;;;4.43;4.07;;;21.50;96.40;;;;;;5065574;28;20506;-51
2021/06/17 00:08:27;;;;;;;4.50;4.03;;;21.50;96.30;;;;;;5054221;28;20569;-51
2021/06/17 00:10:55;;;;;;;4.10;3.80;;;21.50;96.50;;;;;;5054197;28;20476;-51
2021/06/17 00:13:26;;;;;;;5.03;3.80;;;21.40;96.40;;;;;;5053972;28;20451;-51
2021/06/17 00:15:57;;;;;;;4.40;3.90;;;21.50;96.30;;;;;;5059752;28;20542;-52
2021/06/17 00:18:25;;;;;;;4.20;3.70;;;21.40;96.50;;;;;;5073008;28;20500;-51
2021/06/17 00:20:52;;;;;;;4.40;4.00;;;21.40;96.50;;;;;;5073965;28;20531;-51
2021/06/17 00:23:19;;;;;;;8.80;4.50;;;21.40;96.70;;;;;;5073751;28;20470;-52
2021/06/17 00:25:46;;;;;;;5.30;4.10;;;21.40;97.80;;;;;;5071939;28;20475;-51
2021/06/17 00:28:13;;;;;;;6.53;4.37;;;21.20;97.70;;;;;;5073715;28;20948;-50
2021/06/17 00:30:41;;;;;;;5.63;4.70;;;21.20;97.80;;;;;;5073474;28;20487;-52
2021/06/17 00:33:09;;;;;;;5.40;4.13;;;21.20;98.10;;;;;;5073325;28;20447;-50
2021/06/17 00:35:37;;;;;;;6.40;5.07;;;21.10;98.30;;;;;;5069058;28;20884;-51
2021/06/17 00:38:04;;;;;;;4.93;4.43;;;21.00;98.30;;;;;;5053486;28;20452;-51
2021/06/17 00:40:34;;;;;;;9.23;4.20;;;21.00;98.60;;;;;;5066301;28;20492;-51
2021/06/17 00:43:02;;;;;;;5.37;4.87;;;20.90;98.50;;;;;;5073235;28;20451;-51
2021/06/17 00:45:32;;;;;;;10.90;4.83;;;20.80;98.60;;;;;;5069890;28;20476;-51
2021/06/17 00:47:59;;;;;;;4.53;4.10;;;20.80;98.70;;;;;;5053504;28;20447;-51
2021/06/17 00:50:31;;;;;;;5.30;4.30;;;20.70;99.30;;;;;;5071956;28;20834;-51
2021/06/17 00:52:59;;;;;;;4.70;4.20;;;20.80;99.10;;;;;;5071707;28;20442;-51
2021/06/17 00:55:27;;;;;;;4.80;4.40;;;20.80;99.30;;;;;;5055439;28;20455;-50
2021/06/17 00:57:54;;;;;;;4.83;4.40;;;20.80;99.60;;;;;;5072514;28;20909;-51
2021/06/17 01:00:22;;;;;;;4.20;3.90;;;20.70;99.50;;;;;;5073226;28;20473;-51
2021/06/17 01:02:49;;;;;;;5.93;4.50;;;20.70;99.60;;;;;;5072737;28;20956;-51
2021/06/17 01:05:19;;;;;;;4.67;4.27;;;20.60;98.90;;;;;;5072416;28;20505;-51
2021/06/17 01:07:58;;;;;;;4.43;4.03;;;20.60;99.20;;;;;;5065495;28;20521;-51
2021/06/17 01:10:31;;;;;;;4.07;3.70;;;20.60;99.40;;;;;;5052989;28;20470;-51
2021/06/17 01:13:08;;;;;;;6.10;4.60;;;20.60;99.40;;;;;;5053000;28;20953;-51
2021/06/17 01:15:41;;;;;;;5.10;3.70;;;20.60;99.40;;;;;;5055818;28;20984;-50
2021/06/17 01:18:13;;;;;;;4.80;4.07;;;20.60;99.50;;;;;;5072989;28;20446;-51
2021/06/17 01:20:48;;;;;;;4.90;4.07;;;20.60;99.50;;;;;;5072799;28;20477;-51
2021/06/17 01:23:55;;;;;;;4.43;4.03;;;20.60;99.40;;;;;;5052628;28;20462;-51
2021/06/17 01:26:33;;;;;;;6.13;4.47;;;20.60;99.30;;;;;;5047845;28;20476;-50
2021/06/17 01:29:03;;;;;;;4.67;4.27;;;20.60;99.20;;;;;;5052604;28;20462;-51
2021/06/17 01:31:34;;;;;;;6.10;4.63;;;20.50;99.20;;;;;;5053839;28;20458;-50
2021/06/17 01:34:02;;;;;;;4.73;4.23;;;20.50;99.60;;;;;;5058240;28;20452;-51
2021/06/17 01:36:34;;;;;;;5.23;4.20;;;20.50;99.20;;;;;;5072534;28;20933;-51
2021/06/17 01:39:05;;;;;;;4.80;4.30;;;20.50;99.60;;;;;;5072521;28;20469;-51
2021/06/17 01:41:37;;;;;;;6.63;4.47;;;20.40;99.60;;;;;;5068777;28;20451;-50
2021/06/17 01:44:07;;;;;;;4.73;4.23;;;20.40;99.40;;;;;;5068511;28;20455;-51
2021/06/17 01:46:35;;;;;;;4.23;3.83;;;20.40;99.20;;;;;;5058518;28;21004;-51
2021/06/17 01:49:03;;;;;;;5.23;4.10;;;20.40;99.20;;;;;;5052267;28;20452;-51
2021/06/17 01:51:31;;;;;;;4.47;4.17;;;20.50;99.00;;;;;;5052044;28;20448;-51
2021/06/17 01:53:59;;;;;;;4.40;4.00;;;20.40;99.10;;;;;;5052435;28;20508;-51
2021/06/17 01:56:26;;;;;;;5.43;4.07;;;20.40;99.30;;;;;;5053289;28;21303;-51
2021/06/17 01:58:56;;;;;;;4.57;4.17;;;20.40;99.30;;;;;;5052241;28;20832;-51
2021/06/17 02:01:29;;;;;;;6.70;4.17;;;20.30;99.70;;;;;;5052068;28;20444;-51
2021/06/17 02:03:58;;;;;;;5.47;4.13;;;20.30;99.30;;;;;;5054301;28;20487;-51
2021/06/17 02:06:26;;;;;;;5.23;4.13;;;20.20;99.20;;;;;;5071858;28;20483;-51
2021/06/17 02:08:55;;;;;;;5.10;4.57;;;20.30;99.30;;;;;;5070780;28;20993;-51
2021/06/17 02:11:23;;;;;;;5.30;4.87;;;20.30;99.70;;;;;;5071916;28;20451;-51
2021/06/17 02:13:51;;;;;;;4.83;4.37;;;20.30;99.40;;;;;;5070566;28;20451;-51
2021/06/17 02:16:21;;;;;;;5.60;4.10;;;20.20;99.50;;;;;;5071672;28;20435;-51
2021/06/17 02:18:51;;;;;;;5.30;4.60;;;20.10;99.60;;;;;;5054355;28;20448;-51
2021/06/17 02:21:19;;;;;;;5.47;3.60;;;20.10;99.80;;;;;;5051573;28;20976;-51
2021/06/17 02:23:52;;;;;;;5.23;4.73;;;20.10;99.80;;;;;;5052067;28;20471;-51
2021/06/17 02:26:19;;;;;;;4.00;3.60;;;20.10;99.90;;;;;;5071793;28;20509;-51
2021/06/17 02:28:48;;;;;;;5.57;4.20;;;20.10;99.90;;;;;;5062580;28;20478;-51
2021/06/17 02:31:18;;;;;;;6.20;4.07;;;20.10;99.90;;;;;;5071519;22;20507;-57
2021/06/17 02:33:50;;;;;;;4.77;4.37;;;20.10;99.90;;;;;;5051356;28;20517;-56
2021/06/17 02:36:22;;;;;;;5.60;4.90;;;20.00;99.90;;;;;;5031733;28;21000;-56
2021/06/17 02:38:51;;;;;;;4.27;3.87;;;19.90;99.90;;;;;;5034927;28;20831;-56
2021/06/17 02:41:21;;;;;;;4.40;4.00;;;19.90;99.90;;;;;;5015092;28;20488;-56
2021/06/17 02:43:51;;;;;;;6.60;4.70;;;19.90;99.90;;;;;;5012231;28;20456;-57
2021/06/17 02:46:18;;;;;;;5.40;4.90;;;19.90;99.90;;;;;;5031245;28;20480;-56
2021/06/17 02:48:45;;;;;;;4.90;4.40;;;19.80;99.90;;;;;;5031755;28;20453;-57
2021/06/17 02:51:13;;;;;;;5.07;4.60;;;19.90;99.90;;;;;;5029975;28;20982;-56
2021/06/17 02:53:40;;;;;;;4.27;3.87;;;20.00;99.90;;;;;;5011745;28;20461;-56
2021/06/17 02:56:12;;;;;;;5.27;4.00;;;19.90;99.90;;;;;;5030531;28;20445;-56
2021/06/17 02:59:05;;;;;;;4.70;4.30;;;19.90;99.90;;;;;;5031370;28;20475;-57
2021/06/17 03:01:39;;;;;;;5.07;4.67;;;19.80;99.90;;;;;;5024630;28;20479;-56
2021/06/17 03:04:12;;;;;;;5.13;4.70;;;19.90;99.90;;;;;;5031239;28;20510;-56
2021/06/17 03:06:47;;;;;;;4.40;4.00;;;19.90;99.90;;;;;;5031192;28;20527;-57
2021/06/17 03:09:16;;;;;;;5.73;4.67;;;19.90;99.90;;;;;;5031489;28;20444;-56
2021/06/17 03:11:48;;;;;;;7.03;4.77;;;19.80;99.90;;;;;;5030946;28;20502;-56
2021/06/17 03:14:19;;;;;;;5.20;4.70;;;19.80;99.90;;;;;;5031190;28;20907;-56
2021/06/17 03:16:56;;;;;;;5.03;4.53;;;19.90;99.90;;;;;;5030894;28;20456;-57
2021/06/17 03:19:25;;;;;;;5.20;4.10;;;19.90;99.90;;;;;;5031146;28;20514;-56
2021/06/17 03:21:57;;;;;;;5.03;4.33;;;19.90;99.90;;;;;;5031048;28;20514;-56
2021/06/17 03:24:28;;;;;;;4.80;4.30;;;20.00;99.90;;;;;;5030957;28;20880;-56
2021/06/17 03:26:57;;;;;;;5.60;4.47;;;19.90;99.90;;;;;;5030901;28;20520;-56
2021/06/17 03:29:26;;;;;;;8.47;4.67;;;19.90;99.90;;;;;;5030793;28;20510;-56
2021/06/17 03:31:56;;;;;;;5.90;4.37;;;19.90;99.90;;;;;;5030902;28;20460;-56
2021/06/17 03:34:24;;;;;;;4.93;4.53;;;20.00;99.90;;;;;;5030831;28;20456;-56
2021/06/17 03:36:54;;;;;;;5.43;4.60;;;20.00;99.90;;;;;;5031113;28;20540;-56
2021/06/17 03:39:23;;;;;;;5.80;4.67;;;20.10;99.90;;;;;;5030765;28;20821;-56
2021/06/17 03:41:52;;;;;;;8.23;6.60;;;20.10;99.90;;;;;;5030917;28;20889;-57
2021/06/17 03:44:19;;;;;;;5.30;4.30;;;20.20;99.90;;;;;;5030790;28;20457;-56
2021/06/17 03:46:47;;;;;;;5.00;4.60;;;20.10;99.90;;;;;;5030378;28;20480;-56
2021/06/17 03:49:15;;;;;;;6.67;4.93;;;20.10;99.90;;;;;;5030925;28;20452;-56
2021/06/17 03:51:43;;;;;;;5.17;4.67;;;20.10;99.90;;;;;;5034561;28;20448;-56
2021/06/17 03:54:23;;;;;;;5.40;4.70;;;20.10;99.90;;;;;;5033970;28;20776;-56
2021/06/17 03:56:51;;;;;;;7.73;4.77;;;20.10;99.90;;;;;;5034680;28;20440;-56
2021/06/17 03:59:19;;;;;;;5.03;4.53;;;20.20;99.90;;;;;;5034978;28;20451;-56
2021/06/17 04:01:47;;;;;;;7.43;4.67;;;20.10;99.90;;;;;;5034402;28;20444;-56
2021/06/17 04:04:14;;;;;;;4.77;4.37;;;20.20;99.90;;;;;;5034262;28;20444;-56
2021/06/17 04:06:43;;;;;;;7.10;4.97;;;20.20;99.90;;;;;;5033636;28;20538;-57
2021/06/17 04:09:12;;;;;;;4.53;4.13;;;20.20;99.90;;;;;;5032670;28;20461;-56
2021/06/17 04:11:40;;;;;;;8.87;5.13;;;20.20;99.90;;;;;;5034374;28;20444;-56
2021/06/17 04:14:09;;;;;;;9.23;4.93;;;20.20;99.90;;;;;;5033938;28;20464;-57
2021/06/17 04:16:37;;;;;;;6.67;5.00;;;20.20;99.90;;;;;;5034263;28;20460;-57
2021/06/17 04:19:05;;;;;;;5.63;5.03;;;20.20;99.90;;;;;;5034175;28;20448;-56
2021/06/17 04:21:35;;;;;;;5.50;4.80;;;20.20;99.90;;;;;;5016551;28;20523;-57
2021/06/17 04:24:05;;;;;;;7.90;5.03;;;20.30;99.90;;;;;;5025386;28;20459;-57
2021/06/17 04:26:36;;;;;;;6.17;5.10;;;20.40;99.90;;;;;;5019493;28;20483;-56
2021/06/17 04:29:03;;;;;;;5.47;4.97;;;20.50;99.90;;;;;;5033880;28;20996;-57
2021/06/17 04:31:31;;;;;;;9.20;5.60;;;20.50;99.90;;;;;;5033522;28;20480;-56
2021/06/17 04:33:59;;;;;;;6.27;5.67;;;20.60;99.90;;;;;;5033974;28;20452;-56
2021/06/17 04:36:26;;;;;;;7.50;5.00;;;20.60;99.90;;;;;;5033327;28;20969;-57
2021/06/17 04:38:53;;;;;;;6.27;4.63;;;20.60;99.90;;;;;;5034073;28;20491;-55
2021/06/17 04:41:21;;;;;;;6.43;5.50;;;20.70;99.90;;;;;;5033421;28;20518;-57
2021/06/17 04:43:49;;;;;;;6.87;5.30;;;20.80;99.90;;;;;;5033876;28;20518;-55
2021/06/17 04:46:18;;;;;;;6.13;5.33;;;20.70;99.90;;;;;;5033813;28;20480;-56
2021/06/17 04:48:47;;;;;;;6.17;5.57;;;20.90;99.90;;;;;;5033734;28;20445;-56
2021/06/17 04:51:16;;;;;;;6.70;5.30;;;21.00;99.90;;;;;;5033491;28;20468;-57
2021/06/17 04:53:43;;;;;;;6.70;4.30;;;21.00;99.90;;;;;;5033631;28;20472;-57
2021/06/17 04:56:10;;;;;;;5.23;4.63;;;21.10;99.90;;;;;;5033192;28;20506;-56
2021/06/17 04:58:39;;;;;;;5.80;5.20;;;21.40;99.90;;;;;;5033540;28;20452;-56
2021/06/17 05:01:08;;;;;;;5.33;4.83;;;21.70;99.90;;;;;;5032871;28;20494;-57
2021/06/17 05:03:36;;;;;;;8.10;5.13;;;22.30;99.90;;;;;;5033073;28;20452;-57
2021/06/17 05:06:04;;;;;;;6.60;4.57;;;23.10;99.90;;;;;;5032916;28;20484;-57
2021/06/17 05:11:15;;;;;;;6.20;4.53;;;24.80;97.50;;;;;;5013530;28;20581;-57
2021/06/17 05:13:43;;;;;;;5.43;4.93;;;25.90;96.50;;;;;;5013309;28;20525;-57
2021/06/17 05:16:12;;;;;;;5.93;5.00;;;26.90;95.40;;;;;;5027032;28;20456;-57
2021/06/17 05:18:38;;;;;;;6.70;4.70;;;27.90;93.80;;;;;;5033046;28;20457;-56
2021/06/17 05:21:06;;;;;;;5.00;4.60;;;28.10;93.10;;;;;;5032937;28;20518;-57
2021/06/17 05:23:34;;;;;;;6.53;5.40;;;28.20;93.10;;;;;;5032803;28;20502;-57
2021/06/17 05:26:02;;;;;;;8.17;5.50;;;28.80;92.40;;;;;;5032948;28;20530;-57
2021/06/17 05:28:30;;;;;;;5.10;4.60;;;29.40;92.00;;;;;;5032402;28;20453;-57
2021/06/17 05:30:59;;;;;;;5.33;4.83;;;29.80;91.20;;;;;;5032296;28;20480;-57
2021/06/17 05:33:30;;;;;;;6.00;5.30;;;29.90;90.90;;;;;;5032682;28;20460;-57
2021/06/17 05:35:57;;;;;;;9.93;5.07;;;29.90;90.50;;;;;;5032948;28;20449;-57
2021/06/17 05:38:26;;;;;;;5.63;5.23;;;30.00;90.80;;;;;;5032440;28;20449;-56
2021/06/17 05:40:53;;;;;;;8.47;5.23;;;30.30;90.40;;;;;;5029676;28;20498;-57
2021/06/17 05:43:22;;;;;;;6.23;5.27;;;30.10;90.80;;;;;;5027369;28;20508;-57
2021/06/17 05:45:49;;;;;;;5.77;5.30;;;30.50;91.00;;;;;;5020192;28;20481;-57
2021/06/17 05:48:17;;;;;;;6.50;5.90;;;31.00;91.10;;;;;;5027987;28;20449;-56
2021/06/17 05:50:45;;;;;;;6.60;5.90;;;31.00;90.50;;;;;;5028170;28;20913;-58
2021/06/17 05:53:12;;;;;;;9.10;6.00;;;30.70;90.50;;;;;;5015399;28;20454;-57
2021/06/17 05:55:39;;;;;;;7.77;5.53;;;31.10;90.50;;;;;;5031126;28;20449;-58
2021/06/17 05:58:06;;;;;;;7.57;4.90;;;31.70;90.40;;;;;;5021484;28;20966;-57
2021/06/17 06:00:34;;;;;;;6.67;5.97;;;32.00;89.60;;;;;;5020036;28;20469;-58
2021/06/17 06:03:01;;;;;;;6.30;5.73;;;31.50;90.10;;;;;;5016326;28;20879;-57
2021/06/17 06:05:28;;;;;;;6.73;6.00;;;31.50;90.10;;;;;;5030560;28;20784;-57
2021/06/17 06:08:02;;;;;;;10.03;6.10;;;30.80;90.70;;;;;;5027996;28;20484;-57
2021/06/17 06:10:30;;;;;;;5.77;5.17;;;30.60;91.20;;;;;;5032148;28;20471;-57
2021/06/17 06:12:57;;;;;;;6.23;5.63;;;31.20;90.70;;;;;;5019949;28;20454;-56
2021/06/17 06:15:24;;;;;;;6.30;5.70;;;31.50;90.20;;;;;;5012473;28;20535;-57
2021/06/17 06:17:51;;;;;;;7.07;5.60;;;31.60;90.50;;;;;;5018797;28;20471;-57
2021/06/17 06:20:18;;;;;;;8.73;5.87;;;32.20;90.00;;;;;;5029675;28;20551;-58
2021/06/17 06:22:45;;;;;;;7.53;5.70;;;32.70;88.80;;;;;;5027738;28;20448;-57
2021/06/17 06:25:14;;;;;;;5.60;5.07;;;32.40;88.90;;;;;;5014749;28;20876;-58
2021/06/17 06:27:42;;;;;;;6.70;6.10;;;32.50;89.70;;;;;;5020753;28;21079;-58
2021/06/17 06:30:11;;;;;;;6.17;5.57;;;32.80;90.10;;;;;;5030405;28;20516;-57
2021/06/17 06:32:38;;;;;;;6.00;5.40;;;32.60;86.90;;;;;;5030968;28;20452;-57
2021/06/17 06:35:06;;;;;;;5.00;4.60;;;32.80;89.50;;;;;;5031660;28;20530;-58
2021/06/17 06:37:33;;;;;;;6.70;4.80;;;32.90;88.50;;;;;;5031803;28;20449;-58
2021/06/17 06:40:00;;;;;;;6.10;5.60;;;32.40;88.60;;;;;;5031903;28;20472;-58
2021/06/17 06:42:28;;;;;;;6.60;5.43;;;32.40;88.40;;;;;;5031013;28;20958;-58
2021/06/17 06:44:57;;;;;;;6.00;5.47;;;32.90;87.70;;;;;;5030986;28;20882;-58
2021/06/17 06:47:24;;;;;;;12.03;6.10;;;32.60;88.70;;;;;;5030961;28;20487;-57
2021/06/17 06:49:51;;;;;;;5.83;5.20;;;32.10;88.90;;;;;;5030092;28;20559;-57
2021/06/17 06:52:18;;;;;;;6.60;6.00;;;32.20;88.40;;;;;;5031189;28;20452;-58
2021/06/17 06:54:45;;;;;;;12.60;6.87;;;32.70;89.00;;;;;;5031413;28;20460;-57
2021/06/17 06:57:12;;;;;;;8.73;5.83;;;32.60;85.00;;;;;;5030900;28;20449;-57
2021/06/17 06:59:40;;;;;;;6.93;5.93;;;32.80;86.00;;;;;;5031409;28;20476;-58
2021/06/17 07:02:08;;;;;;;5.87;5.40;;;32.90;84.60;;;;;;5023943;28;20471;-58
2021/06/17 07:04:35;;;;;;;8.10;6.00;;;33.10;85.00;;;;;;5021637;28;20790;-57
2021/06/17 07:07:02;;;;;;;8.43;6.10;;;32.90;84.80;;;;;;5025019;28;20481;-57
2021/06/17 07:09:30;;;;;;;6.30;5.80;;;33.20;87.40;;;;;;5031333;28;20460;-58
2021/06/17 07:11:57;;;;;;;7.20;6.37;;;32.60;88.50;;;;;;5030551;28;20955;-57
2021/06/17 07:14:24;;;;;;;6.60;6.00;;;32.50;86.80;;;;;;5030595;28;20836;-57
2021/06/17 07:16:52;;;;;;;6.73;5.33;;;32.80;85.00;;;;;;5030983;28;20877;-57
2021/06/17 07:19:19;;;;;;;6.27;5.67;;;32.50;86.70;;;;;;5031020;28;20836;-56
2021/06/17 07:21:46;;;;;;;7.17;6.30;;;32.80;87.50;;;;;;5030268;28;20950;-57
2021/06/17 07:24:13;;;;;;;7.10;6.10;;;32.90;89.40;;;;;;5022818;28;20452;-57
2021/06/17 07:26:41;;;;;;;8.10;6.50;;;33.20;87.70;;;;;;5032926;28;20472;-58
2021/06/17 07:29:08;;;;;;;7.53;6.20;;;32.50;91.20;;;;;;5034828;28;20453;-57
2021/06/17 07:31:39;;;;;;;6.87;5.97;;;31.00;92.50;;;;;;5034326;28;20480;-57
2021/06/17 07:34:09;;;;;;;6.67;6.07;;;31.50;91.50;;;;;;5034039;28;20510;-57
2021/06/17 07:36:36;;;;;;;8.77;5.77;;;32.50;91.00;;;;;;5034428;28;20491;-57
2021/06/17 07:39:04;;;;;;;6.50;5.83;;;33.40;90.10;;;;;;5032117;28;20883;-57
2021/06/17 07:41:32;;;;;;;8.97;5.87;;;33.80;91.00;;;;;;5028964;28;20485;-57
2021/06/17 07:43:59;;;;;;;6.93;5.90;;;34.00;86.90;;;;;;5028149;28;20461;-58
2021/06/17 07:46:26;;;;;;;6.77;6.23;;;33.80;90.10;;;;;;5015025;28;20855;-57
2021/06/17 07:48:53;;;;;;;6.67;6.07;;;33.00;90.70;;;;;;5027998;28;20868;-58
2021/06/17 07:51:22;;;;;;;7.13;6.53;;;33.30;90.50;;;;;;5025039;28;20503;-58
2021/06/17 07:53:48;;;;;;;6.87;6.00;;;32.70;91.10;;;;;;5030069;28;20510;-59
2021/06/17 07:56:16;;;;;;;7.60;6.90;;;32.30;91.40;;;;;;5028167;28;20468;-58
2021/06/17 07:58:43;;;;;;;8.60;7.00;;;32.80;90.00;;;;;;5027975;28;20461;-57
2021/06/17 08:01:10;;;;;;;7.00;6.30;;;32.60;91.60;;;;;;5026555;28;20479;-57
2021/06/17 08:03:38;;;;;;;8.27;6.68;;;33.10;91.70;;;;;;5031302;28;21081;-59
2021/06/17 08:06:05;;;;;;;7.33;6.63;;;33.40;90.90;;;;;;5032704;28;20202;-59
2021/06/17 08:08:33;;;;;;;7.43;6.73;;;33.70;91.20;;;;;;5032845;28;20480;-58
2021/06/17 08:11:00;;;;;;;7.97;7.17;;;33.90;91.90;;;;;;5034130;28;20471;-58
2021/06/17 08:13:27;;;;;;;7.93;7.23;;;34.20;90.20;;;;;;5034254;28;20456;-57
2021/06/17 08:15:55;;;;;;;6.97;6.37;;;34.40;90.00;;;;;;5034359;28;20957;-58
2021/06/17 08:18:22;;;;;;;8.93;7.17;;;34.60;90.20;;;;;;5030088;28;20830;-59
2021/06/17 08:20:49;;;;;;;8.40;6.73;;;34.80;91.30;;;;;;5033098;28;20474;-58
2021/06/17 08:23:19;;;;;;;8.17;6.67;;;33.70;90.20;;;;;;5032411;28;21044;-58
2021/06/17 08:25:47;;;;;;;7.87;7.07;;;33.50;90.40;;;;;;5033961;28;20454;-57
2021/06/17 08:28:14;;;;;;;7.43;6.70;;;31.40;93.10;;;;;;5032979;28;20484;-58
2021/06/17 08:30:41;;;;;;;8.07;7.20;;;31.10;93.80;;;;;;5033741;28;20538;-57
2021/06/17 08:33:08;;;;;;;8.93;6.80;;;31.00;94.30;;;;;;5019983;28;20453;-57
2021/06/17 08:35:35;;;;;;;7.90;6.80;;;30.60;95.80;;;;;;5030348;28;20534;-57
2021/06/17 08:38:03;;;;;;;7.73;6.20;;;31.10;94.60;;;;;;5033367;28;20445;-58
2021/06/17 08:40:34;;;;;;;9.00;6.57;;;31.60;93.90;;;;;;5033606;28;20479;-58
2021/06/17 08:43:04;;;;;;;7.33;6.50;;;32.50;92.70;;;;;;5033565;28;21012;-58
2021/06/17 08:45:31;;;;;;;8.40;6.73;;;32.90;93.30;;;;;;5033875;28;20451;-58
2021/06/17 08:47:58;;;;;;;7.73;6.83;;;33.50;90.90;;;;;;5031754;28;20488;-58
2021/06/17 08:50:26;;;;;;;9.20;6.00;;;33.10;90.70;;;;;;5023340;28;20469;-57
2021/06/17 08:52:53;;;;;;;6.70;6.10;;;32.90;91.50;;;;;;5028905;28;20788;-58
2021/06/17 08:55:22;;;;;;;6.60;6.10;;;33.20;90.90;;;;;;5016688;28;20496;-58
2021/06/17 08:57:50;;;;;;;6.60;5.90;;;33.20;90.60;;;;;;5032421;28;20449;-57
2021/06/17 09:00:35;;;;;;;12.40;7.33;;;32.80;91.80;;;;;;5032605;28;21014;-58
2021/06/17 09:03:04;;;;;;;9.60;6.30;;;33.20;90.10;;;;;;5019144;28;20480;-57
2021/06/17 09:05:33;;;;;;;7.90;5.93;;;33.50;87.80;;;;;;5032712;28;20511;-58
2021/06/17 09:08:01;;;;;;;9.23;5.97;;;33.70;85.10;;;;;;5016022;28;20539;-57
2021/06/17 09:10:28;;;;;;;11.23;6.77;;;33.90;88.00;;;;;;5025507;28;20469;-57
2021/06/17 09:12:57;;;;;;;9.23;6.67;;;33.90;83.00;;;;;;5013235;28;20939;-57
2021/06/17 09:15:52;;;;;;;15.13;6.73;;;33.60;85.70;;;;;;5013422;28;20511;-58
2021/06/17 09:18:24;;;;;;;8.93;6.30;;;32.30;84.80;;;;;;5000187;28;20492;-58
2021/06/17 09:20:54;;;;;;;7.33;6.30;;;31.40;90.40;;;;;;5033014;28;20456;-57
2021/06/17 09:23:33;;;;;;;10.20;6.80;;;31.80;89.80;;;;;;5023039;28;20507;-58
2021/06/17 09:26:03;;;;;;;8.90;5.77;;;32.70;89.10;;;;;;5013228;28;20958;-57
2021/06/17 09:28:46;;;;;;;7.80;7.10;;;32.30;86.40;;;;;;5013080;28;20543;-57
2021/06/17 09:31:17;;;;;;;6.63;6.00;;;32.50;86.10;;;;;;5012910;28;20851;-58
2021/06/17 09:33:44;;;;;;;6.07;5.57;;;32.40;85.80;;;;;;5025933;28;20460;-56
2021/06/17 09:36:11;;;;;;;6.80;6.00;;;32.40;86.80;;;;;;5032833;28;20495;-57
2021/06/17 09:38:47;;;;;;;7.20;6.10;;;32.90;87.20;;;;;;5032697;28;20514;-57
2021/06/17 09:41:33;;;;;;;6.70;6.20;;;33.60;81.10;;;;;;5032659;28;20464;-57
2021/06/17 09:44:00;;;;;;;7.90;6.97;;;34.10;82.40;;;;;;5032858;28;20444;-57
2021/06/17 09:46:29;;;;;;;6.73;6.00;;;33.90;82.90;;;;;;5032463;28;20540;-59
2021/06/17 09:49:03;;;;;;;6.73;6.00;;;32.80;87.50;;;;;;5032411;28;20484;-57
2021/06/17 09:51:38;;;;;;;7.10;6.50;;;33.50;85.90;;;;;;5031337;28;20472;-57
2021/06/17 09:54:17;;;;;;;6.70;5.90;;;33.60;82.60;;;;;;5032427;28;20506;-57
2021/06/17 09:56:49;;;;;;;9.67;6.93;;;33.30;86.90;;;;;;5032592;28;20448;-57
2021/06/17 09:59:36;;;;;;;6.50;6.00;;;33.50;84.30;;;;;;5027362;28;20889;-57
2021/06/17 10:02:06;;;;;;;6.57;6.07;;;33.80;83.30;;;;;;5012409;28;20937;-56
2021/06/17 10:04:34;;;;;;;7.47;6.77;;;33.90;87.50;;;;;;5012889;28;20458;-56
2021/06/17 10:07:01;;;;;;;9.47;6.87;;;32.70;90.10;;;;;;5022033;28;20503;-56
2021/06/17 10:09:29;;;;;;;6.63;6.03;;;32.90;86.60;;;;;;5032169;28;20469;-56
2021/06/17 10:11:57;;;;;;;6.87;6.03;;;33.10;88.80;;;;;;5031836;28;20460;-58
2021/06/17 10:14:24;;;;;;;7.80;7.13;;;33.50;85.20;;;;;;5031991;28;20965;-57
2021/06/17 10:16:52;;;;;;;7.70;6.73;;;33.40;86.40;;;;;;5032100;28;20960;-57
2021/06/17 10:19:20;;;;;;;7.63;6.77;;;33.60;85.90;;;;;;5031938;28;20961;-56
2021/06/17 10:21:48;;;;;;;7.37;6.57;;;34.30;84.20;;;;;;5031893;28;20448;-56
2021/06/17 10:24:17;;;;;;;8.00;7.23;;;34.50;90.20;;;;;;5031535;28;20518;-56
2021/06/17 10:26:46;;;;;;;8.33;6.50;;;34.10;89.70;;;;;;5032197;28;20453;-57
2021/06/17 10:29:33;;;;;;;7.27;6.60;;;34.00;87.90;;;;;;5031759;28;20610;-57
2021/06/17 10:32:01;;;;;;;6.53;5.93;;;33.60;89.90;;;;;;5030688;28;20452;-58
2021/06/17 10:34:38;;;;;;;6.90;6.40;;;33.70;88.60;;;;;;5031070;28;20505;-57
2021/06/17 10:37:09;;;;;;;7.43;6.33;;;32.60;84.80;;;;;;5030687;28;20494;-57
2021/06/17 10:39:37;;;;;;;7.13;6.20;;;31.30;89.30;;;;;;5031097;28;20473;-57
2021/06/17 10:42:20;;;;;;;7.17;6.43;;;30.50;90.10;;;;;;5030425;28;20532;-58
2021/06/17 10:44:54;;;;;;;9.23;6.50;;;31.10;90.40;;;;;;5031117;28;20451;-56
2021/06/17 10:48:01;;;;;;;6.53;5.93;;;31.70;90.60;;;;;;5030678;28;20542;-57
2021/06/17 10:50:38;;;;;;;6.13;5.57;;;31.50;87.00;;;;;;5030969;28;20469;-58
2021/06/17 10:53:34;;;;;;;6.30;5.80;;;31.60;86.30;;;;;;5029954;28;20953;-56
2021/06/17 10:56:05;;;;;;;6.93;6.07;;;31.20;90.30;;;;;;5019430;28;20452;-57
2021/06/17 10:58:56;;;;;;;5.83;5.33;;;31.80;84.10;;;;;;5031573;28;20498;-56
2021/06/17 11:01:37;;;;;;;6.23;5.63;;;32.30;82.90;;;;;;5036362;28;20468;-56
2021/06/17 11:04:12;;;;;;;6.03;5.57;;;32.80;79.40;;;;;;5037066;28;20489;-56
2021/06/17 11:07:16;;;;;;;6.70;5.77;;;33.00;79.60;;;;;;5037669;28;20486;-57
2021/06/17 11:10:11;;;;;;;8.67;5.60;;;32.50;81.60;;;;;;5036890;28;20570;-58
2021/06/17 11:12:59;;;;;;;6.00;5.53;;;32.50;82.70;;;;;;5037251;28;20451;-57
2021/06/17 11:15:38;;;;;;;6.33;5.60;;;32.40;83.40;;;;;;5037019;28;20523;-58
2021/06/17 11:18:06;;;;;;;5.67;5.00;;;32.70;79.70;;;;;;5037198;28;20930;-58
2021/06/17 11:20:41;;;;;;;6.93;6.33;;;32.80;79.20;;;;;;5037011;28;20468;-56
2021/06/17 11:23:10;;;;;;;6.10;5.60;;;32.60;80.20;;;;;;5036818;28;20945;-57
2021/06/17 11:25:40;;;;;;;6.13;5.50;;;32.50;80.80;;;;;;5036566;28;21024;-57
2021/06/17 11:28:09;;;;;;;7.00;5.63;;;32.60;80.80;;;;;;5036918;28;20516;-57
2021/06/17 11:31:09;;;;;;;7.53;5.83;;;32.70;79.50;;;;;;5033647;28;93166;-58
2021/06/17 11:33:44;;;;;;;7.10;6.50;;;32.80;83.40;;;;;;5037908;28;20499;-58
2021/06/17 11:36:14;;;;;;;7.27;6.57;;;32.70;82.40;;;;;;5038088;28;20526;-57
2021/06/17 11:38:43;;;;;;;8.17;6.60;;;32.20;82.90;;;;;;5037793;28;20960;-57
2021/06/17 11:41:15;;;;;;;8.07;7.10;;;32.20;85.10;;;;;;5037341;28;21188;-57
2021/06/17 11:43:43;;;;;;;12.00;6.80;;;32.00;83.80;;;;;;5037404;28;20498;-58
2021/06/17 11:46:35;;;;;;;7.43;6.80;;;32.00;83.30;;;;;;5037930;28;20459;-57
2021/06/17 11:49:05;;;;;;;7.40;6.70;;;32.00;85.20;;;;;;5037723;28;20507;-57
2021/06/17 11:51:51;;;;;;;7.17;6.47;;;32.00;85.20;;;;;;5037425;28;20472;-57
2021/06/17 11:54:21;;;;;;;7.23;6.63;;;32.20;83.20;;;;;;5037711;28;20455;-57
2021/06/17 11:56:49;;;;;;;8.23;7.53;;;32.00;83.70;;;;;;5038232;28;20506;-57
2021/06/17 11:59:18;;;;;;;7.87;7.07;;;31.80;85.70;;;;;;5036678;28;20502;-58
2021/06/17 12:02:08;;;;;;;6.93;6.33;;;31.30;90.50;;;;;;5036949;28;20498;-57
2021/06/17 12:04:43;;;;;;;7.27;6.63;;;31.40;85.70;;;;;;5037584;28;20502;-57
2021/06/17 12:07:10;;;;;;;7.37;6.57;;;31.60;85.70;;;;;;5037877;28;20444;-56
2021/06/17 12:09:39;;;;;;;8.17;6.70;;;31.40;82.90;;;;;;5037252;28;20545;-57
2021/06/17 12:12:17;;;;;;;8.47;6.60;;;30.90;90.20;;;;;;5033242;28;20870;-56
2021/06/17 12:14:44;;;;;;;11.63;6.80;;;30.50;88.10;;;;;;5034077;28;20893;-57
2021/06/17 12:17:12;;;;;;;8.60;5.90;;;30.80;85.00;;;;;;5034705;28;20452;-58
2021/06/17 12:19:39;;;;;;;6.43;5.83;;;31.20;83.00;;;;;;5034425;28;20471;-59
2021/06/17 12:22:08;;;;;;;7.80;7.10;;;31.40;83.70;;;;;;5034195;28;20452;-58
2021/06/17 12:24:36;;;;;;;7.23;6.53;;;31.50;87.20;;;;;;5034100;28;20939;-58
2021/06/17 12:27:06;;;;;;;8.73;6.27;;;31.10;86.50;;;;;;5034251;28;20453;-59
2021/06/17 12:29:33;;;;;;;8.30;6.67;;;31.00;85.40;;;;;;5033326;28;20492;-59
2021/06/17 12:32:01;;;;;;;7.07;6.50;;;30.80;88.40;;;;;;5032305;28;20845;-58
2021/06/17 12:34:39;;;;;;;8.80;6.87;;;30.60;89.20;;;;;;5031512;28;20548;-56
2021/06/17 12:37:09;;;;;;;6.30;5.70;;;30.20;86.00;;;;;;5034012;28;20539;-56
2021/06/17 12:39:37;;;;;;;5.67;5.17;;;30.40;85.20;;;;;;5033864;28;20469;-57
2021/06/17 12:42:11;;;;;;;5.90;5.40;;;30.40;81.30;;;;;;5033565;28;20488;-56
2021/06/17 12:44:40;;;;;;;5.60;5.10;;;30.40;83.90;;;;;;5033841;28;20824;-56
2021/06/17 12:47:12;;;;;;;6.70;5.40;;;30.70;80.60;;;;;;5033797;28;22116;-56
2021/06/17 12:52:27;;;;;;;5.97;5.37;;;30.90;88.00;;;;;;5033573;28;20456;-56
2021/06/17 12:54:54;;;;;;;6.23;5.73;;;31.10;82.70;;;;;;5033615;28;20495;-57
2021/06/17 12:57:24;;;;;;;5.40;5.00;;;31.30;84.00;;;;;;5033731;28;20475;-56
2021/06/17 12:59:55;;;;;;;6.17;5.40;;;31.60;81.30;;;;;;5033519;28;21010;-56
2021/06/17 13:02:44;;;;;;;11.17;5.03;;;31.70;80.40;;;;;;5033326;28;20453;-57
2021/06/17 13:05:14;;;;;;;5.53;5.07;;;31.70;80.20;;;;;;5032988;28;20461;-56
2021/06/17 13:07:58;;;;;;;6.30;4.90;;;31.70;74.80;;;;;;5030800;28;20468;-57